BEARDSLEY LAKE (BRD)

Elevation: 3398' · STANISLAUS R basin · Operator: Oakdale South San Joaquin Irrigation District

Provisional data, subject to change.
Query executed Sunday at 2:02:10   clock

Select a sensor type for a plot of data.
Note: Reservoir Flows are daily averages.

Earlier

Date STORAGE    RES CHG    OUTFLOW    PPT INC   
 AF   AF   CFS   INCHES  
01/15/2016 33287 -264 498 1.10
01/16/2016 33081 -206 496 0.39
01/17/2016 32852 -229 494 0.00
01/18/2016 32681 -171 494 0.78
01/19/2016 32593 -88 494 0.52
01/20/2016 32487 -106 493 0.96
01/21/2016 32248 -239 497 0.00
01/22/2016 32083 -165 498 0.00
01/23/2016 32210 127 489 1.61
01/24/2016 32147 -63 490 0.00
01/25/2016 32002 -145 486 0.00
01/26/2016 31755 -247 491 0.00
01/27/2016 31568 -187 493 0.00
01/28/2016 31293 -275 493 0.00
01/29/2016 30986 -307 495 0.12
01/30/2016 31755 769 279 1.32
01/31/2016 32054 299 484 0.33
02/01/2016 32069 15 490 0.28
02/02/2016 32132 63 492 0.03
02/03/2016 32185 53 491 0.00
02/04/2016 32258 73 491 0.00
02/05/2016 32185 -73 494 0.00
02/06/2016 31997 -188 497 0.00
02/07/2016 31842 -155 499 0.00
02/08/2016 31750 -92 496 0.00
02/09/2016 31707 -43 498 0.00
02/10/2016 31731 24 499 0.00
02/11/2016 31794 63 501 0.00
02/12/2016 31529 -265 500 0.00
02/13/2016 -- -- -- --
02/14/2016 -- -- -- --

Later | Latest

Warning! This data is preliminary and subject to revision.

Show BRD Map | Plot BRD Data | 1 Month BRD Data | Real-Time BRD Data | BRD Info